• Join FlightAware (Why Join?)
  • Login
  • US Flag 
02:24AM EDT


 

Airport Tracker/Info


-or-


 

Live Flight TrackerFlight Track Log ✈ N1804S ✈ 17-Jul-2014 ✈ KSAV - KORL

Flight Track Log - Related Links

Times and Time Zones

All times are in EDT time to prevent confusion due to time zone crossing. See the N1804S flight status page for this flight to view local times or setup timezone preferences in your user account.

Time Position Orientation Groundspeed Altitude Reporting Facility
EDT Latitude Longitude Course Direction KTS MPH feet Rate Location/Type
09:40PM 31.9178 -81.1839 157° South  Level FlightAware Approximate
09:41PM 31.8834 -81.1833 180° South  Level FlightAware Approximate
09:42PM 31.8502 -81.1916 203° Southwest  Level FlightAware Approximate
09:43PM 31.8177 -81.2052 196° South  Level FlightAware Approximate
09:44PM 31.7845 -81.2163 196° South  Level FlightAware Approximate
09:45PM 31.7512 -81.2274 196° South  Level FlightAware Approximate
09:46PM 31.7173 -81.2387 196° South  Level FlightAware Approximate
09:47PM 31.6833 -81.2500 194° South  Level FlightAware Approximate
09:48PM 31.6490 -81.2598 194° South  Level FlightAware Approximate
09:49PM 31.6147 -81.2696 194° South  Level FlightAware Approximate
09:49PM 31.6783 -81.2861 194° South 146 168 6,000  Level Jacksonville Center
09:50PM 31.5805 -81.2794 194° South  Level FlightAware Approximate
09:50PM 31.6411 -81.3114 210° Southwest 146 168 6,000  Level Jacksonville Center
09:51PM 31.5462 -81.2892 194° South  Level FlightAware Approximate
09:51PM 31.6014 -81.3192 189° South 146 168 6,000  Level Jacksonville Center
09:52PM 31.5119 -81.2990 194° South  Level FlightAware Approximate
09:52PM 31.5617 -81.3225 184° South 146 168 6,000  Level Jacksonville Center
09:53PM 31.4776 -81.3088 194° South  Level FlightAware Approximate
09:53PM 31.5242 -81.3278 187° South 146 168 6,100  Level Jacksonville Center
09:54PM 31.4806 -81.3383 192° South 146 168 6,000 -60 Descending Jacksonville Center
09:55PM 31.4389 -81.3511 195° South 151 174 6,000 -60 Level Jacksonville Center
09:56PM 31.3994 -81.3642 196° South 144 166 5,900  Descending Jacksonville Center
09:57PM 31.3597 -81.3719 189° South 144 166 6,000  Climbing Jacksonville Center
09:58PM 31.3267 -81.3847 198° South 144 166 6,000  Level Jacksonville Center
09:59PM 31.2828 -81.3950 191° South 144 166 6,000  Level Jacksonville Center
10:00PM 31.2456 -81.4078 196° South 144 166 6,000 -60 Level Jacksonville Center
10:01PM 31.2058 -81.4158 190° South 144 166 5,900  Descending Jacksonville Center
10:01PM 31.1831 -81.4211 191° South 144 166 6,000  Climbing Jacksonville Center
10:02PM 31.1725 -81.4236 191° South 144 166 5,900 -120 Descending Jacksonville Center
10:02PM 31.1433 -81.4242 181° South 148 170 5,900 60 Level Jacksonville Center
10:03PM 31.1308 -81.4292 199° South 144 166 6,000 60 Climbing Jacksonville Center
10:03PM 31.1078 -81.4294 181° South 138 159 6,000 -120 Level Jacksonville Center
10:04PM 31.0892 -81.4297 181° South 144 166 5,900  Descending Jacksonville Center
10:04PM 31.0661 -81.4325 186° South 142 163 6,000 60 Climbing Jacksonville Center
10:05PM 31.0475 -81.4378 194° South 144 166 6,000  Level Jacksonville Center
10:05PM 31.0267 -81.4381 181° South 143 165 6,000  Level Jacksonville Center
10:06PM 31.0100 -81.4406 187° South 144 166 6,000  Level Jacksonville Center
10:06PM 30.9869 -81.4433 186° South 144 166 6,000  Level Jacksonville Center
10:07PM 30.9703 -81.4436 181° South 144 166 6,000  Level Jacksonville Center
10:07PM 30.9453 -81.4464 185° South 143 165 6,000  Level Jacksonville Center
10:08PM 30.9286 -81.4517 195° South 144 166 6,000  Level Jacksonville Center
10:08PM 30.9078 -81.4592 197° South 144 166 6,000  Level Jacksonville Center
10:09PM 30.8911 -81.4619 188° South 144 166 6,000  Level Jacksonville Center
10:10PM 30.8639 -81.4647 185° South 143 165 6,000 60 Level Jacksonville Center
10:10PM 30.8514 -81.4672 190° South 144 166 6,100  Climbing Jacksonville Center
10:11PM 30.8244 -81.4678 181° South 142 163 6,000 -120 Descending Jacksonville Center
10:11PM 30.7889 -81.4778 194° South 140 161 6,000  Level Jacksonville Center
10:12PM 30.7472 -81.4883 192° South 139 160 6,000  Level Jacksonville Center
10:13PM 30.7097 -81.4936 187° South 138 159 6,000  Level Jacksonville Center
10:15PM 30.6681 -81.4822 167° South 138 159 6,000  Level Jacksonville Center
10:16PM 30.6283 -81.4828 181° South 141 162 6,000  Level Jacksonville Center
10:17PM 30.5867 -81.4858 184° South 139 160 6,000  Level Jacksonville Center
10:18PM 30.5553 -81.4861 180° South 141 162 6,000  Level Jacksonville Center
10:19PM 30.5114 -81.4942 189° South 138 159 6,000  Level Jacksonville Center
10:20PM 30.4656 -81.4972 183° South 143 165 6,000  Level Jacksonville Center
10:21PM 30.4258 -81.5025 187° South 139 160 6,100 -300 Climbing Jacksonville Center
10:22PM 30.3864 -81.5056 184° South 139 160 5,400 -600 Descending Jacksonville Center
10:23PM 30.3467 -81.5108 187° South 144 166 4,900 -600 Descending Jacksonville Center
10:24PM 30.3072 -81.5211 193° South 142 163 4,300 -480 Descending Jacksonville Center
10:25PM 30.2675 -81.5217 181° South 139 160 4,000 -180 Descending Jacksonville Center
10:26PM 30.2300 -81.5197 177° South 141 162 4,000  Level Jacksonville Center
10:27PM 30.1964 -81.5058 160° South 139 160 4,000  Level Jacksonville Center
10:28PM 30.1586 -81.4967 168° South 144 166 4,000  Level Jacksonville Center
10:29PM 30.1192 -81.5022 187° South 142 163 4,000  Level Jacksonville Center
10:30PM 30.0833 -81.4931 168° South 139 160 4,000  Level Jacksonville Center
10:31PM 30.0439 -81.4936 181° South 142 163 4,000  Level Jacksonville Center
10:32PM 30.0042 -81.4919 178° South 144 166 4,000  Level Jacksonville Center
10:33PM 29.9686 -81.4875 174° South 143 165 4,000  Level Jacksonville Center
10:33PM 29.9414 -81.4881 181° South 139 160 4,000 -120 Level Jacksonville Center
10:34PM 29.9058 -81.4861 177° South 137 158 3,900 -60 Descending Jacksonville Center
10:35PM 29.8725 -81.4842 177° South 125 144 3,900  Level Jacksonville Center
10:36PM 29.8369 -81.4800 174° South 112 129 3,900  Level Jacksonville Center
10:37PM 29.8078 -81.4756 172° South 110 127 3,900  Level Jacksonville Center
10:38PM 29.7764 -81.4664 166° South 112 129 3,900  Level Jacksonville Center
10:39PM 29.7450 -81.4692 184° South 116 133 4,000  Climbing Jacksonville Center
10:40PM 29.7094 -81.4697 181° South 114 131 4,000  Level Jacksonville Center
10:41PM 29.6783 -81.4750 188° South 114 131 4,000  Level Jacksonville Center
10:43PM 29.6469 -81.4731 177° South 115 132 4,000 -60 Level Jacksonville Center
10:44PM 29.6156 -81.4639 166° South 115 132 3,900 -60 Descending Jacksonville Center
10:44PM 29.5842 -81.4622 177° South 114 131 3,900  Level Jacksonville Center
10:46PM 29.5506 -81.4506 163° South 109 125 3,900  Level Jacksonville Center
10:47PM 29.5214 -81.4464 173° South 110 127 3,900  Level Jacksonville Center
10:48PM 29.4919 -81.4372 165° South 105 121 4,000  Climbing Jacksonville Center
10:49PM 29.4628 -81.4328 172° South 106 122 4,000  Level Jacksonville Center
10:50PM 29.4314 -81.4286 173° South 111 128 4,000  Level Jacksonville Center
10:51PM 29.4000 -81.4242 173° South 114 131 4,100 -60 Climbing Jacksonville Center
10:52PM 29.3731 -81.4269 185° South 117 135 3,900 -120 Descending Jacksonville Center
10:53PM 29.3394 -81.4275 181° South 110 127 3,900  Level Jacksonville Center
10:54PM 29.3083 -81.4256 177° South 110 127 4,000  Climbing Jacksonville Center
10:55PM 29.2767 -81.4167 166° South 111 128 3,900 -60 Descending Jacksonville Center
10:56PM 29.2475 -81.4097 168° South 109 125 3,900  Level Jacksonville Center
10:58PM 29.2000 -81.3833 154° Southeast 108 124 4,000  Climbing Orlando TRACON
10:58PM 29.1667 -81.3833 180° South 112 129 4,000 -60 Level Orlando TRACON
11:00PM 29.1000 -81.3833 180° South 112 129 3,900  Descending Orlando TRACON
11:01PM 29.0667 -81.3833 180° South 110 127 4,000  Climbing Orlando TRACON
11:02PM 29.0500 -81.3833 180° South 127 146 4,000  Level Orlando TRACON
11:03PM 29.0000 -81.3833 180° South 146 168 4,000 -60 Level Orlando TRACON
11:04PM 28.9667 -81.3833 180° South 147 169 3,900 -60 Descending Orlando TRACON
11:05PM 28.9167 -81.3833 180° South 151 174 3,900 -240 Level Orlando TRACON
11:06PM 28.8667 -81.3667 164° South 153 176 3,400 -600 Descending Orlando TRACON
11:07PM 28.8333 -81.3500 156° South 158 182 2,800 -600 Descending Orlando TRACON
11:08PM 28.8000 -81.3667 204° Southwest 150 173 2,300 -360 Descending Orlando TRACON
11:09PM 28.7500 -81.3667 180° South 145 167 2,100 -240 Descending Orlando TRACON
11:10PM 28.7167 -81.3833 204° Southwest 141 162 1,900 -120 Descending Orlando TRACON
11:11PM 28.6833 -81.4167 221° Southwest 134 154 1,900  Level Orlando TRACON
11:12PM 28.6500 -81.4333 204° Southwest 134 154 1,900 -180 Level Orlando TRACON
11:14PM 28.5833 -81.4167 111° Southeast 130 150 1,500 -300 Descending Orlando TRACON
11:15PM 28.5500 -81.4167 180° South 119 137 1,200 -240 Descending Orlando TRACON
11:19PM 28.5333 -81.3667 170° South 113 130 500 -180 Descending Orlando TRACON
11:21PM 28.5455 -81.3329 90° East  Level Estimated
11:24PM 28.5455 -81.3329 170° South  Level Estimated
11:28PM 28.5455 -81.3329 90° East  Level Estimated
11:29PM 28.5455 -81.3329 130° Southeast  Level Estimated